Time;durP1;ratioP1;P1;durP2;ratioP2;P2;SDS_P1;SDS_P2;PMS_P1;PMS_P2;Temp;Humidity;BMP_temperature;BMP_pressure;BME280_temperature;BME280_humidity;BME280_pressure;Samples;Min_cycle;Max_cycle;Signal;HPM_P1;HPM_P2
2022/04/07 00:01:17;;;;;;;6.10;4.85;;;9.20;99.90;;;;;;5013560;28;20033;-75
2022/04/07 00:03:43;;;;;;;7.30;4.75;;;9.20;99.90;;;;;;5012543;28;20038;-74
2022/04/07 00:06:12;;;;;;;7.30;5.22;;;9.20;99.90;;;;;;4996533;28;20099;-75
2022/04/07 00:08:41;;;;;;;6.80;5.15;;;9.30;99.90;;;;;;5013651;28;20057;-74
2022/04/07 00:11:08;;;;;;;5.90;4.45;;;9.30;99.90;;;;;;5013425;28;20367;-76
2022/04/07 00:13:34;;;;;;;9.48;5.40;;;9.30;99.90;;;;;;4997080;28;20402;-75
2022/04/07 00:16:00;;;;;;;8.85;5.50;;;9.20;99.90;;;;;;5013429;28;20046;-74
2022/04/07 00:18:29;;;;;;;8.32;6.07;;;9.10;99.90;;;;;;5012707;28;20076;-72
2022/04/07 00:20:56;;;;;;;8.73;6.55;;;9.00;99.90;;;;;;5013391;28;20131;-78
2022/04/07 00:23:23;;;;;;;8.60;6.05;;;8.90;99.90;;;;;;5012620;28;20061;-75
2022/04/07 00:25:49;;;;;;;9.60;6.93;;;9.10;99.90;;;;;;5014082;28;20169;-75
2022/04/07 00:28:15;;;;;;;8.10;6.07;;;8.90;99.90;;;;;;5012189;28;20042;-74
2022/04/07 00:30:43;;;;;;;8.73;6.97;;;8.80;99.90;;;;;;5013210;28;20077;-74
2022/04/07 00:33:09;;;;;;;10.57;6.63;;;8.80;99.90;;;;;;5012288;28;20137;-73
2022/04/07 00:35:35;;;;;;;9.75;7.22;;;8.80;99.90;;;;;;5013227;28;20057;-74
2022/04/07 00:38:03;;;;;;;9.80;7.82;;;8.80;99.90;;;;;;5012010;28;20136;-73
2022/04/07 00:40:30;;;;;;;10.13;7.53;;;8.90;99.90;;;;;;5016262;28;20097;-74
2022/04/07 00:42:56;;;;;;;12.15;8.20;;;8.80;99.90;;;;;;5017683;28;20093;-74
2022/04/07 00:45:23;;;;;;;11.18;7.82;;;8.80;99.90;;;;;;5015830;28;20451;-74
2022/04/07 00:47:49;;;;;;;10.43;7.70;;;8.70;99.90;;;;;;5015763;28;20053;-75
2022/04/07 00:50:16;;;;;;;11.70;7.53;;;8.70;99.90;;;;;;5015708;28;20053;-76
2022/04/07 00:52:50;;;;;;;10.35;7.32;;;8.70;99.90;;;;;;5016696;28;20049;-74
2022/04/07 00:55:16;;;;;;;10.27;7.15;;;8.60;99.90;;;;;;5016637;28;20057;-76
2022/04/07 00:57:43;;;;;;;9.80;7.07;;;8.70;99.90;;;;;;5016613;28;20092;-75
2022/04/07 01:00:11;;;;;;;10.32;7.63;;;8.70;99.90;;;;;;5016521;28;20050;-74
2022/04/07 01:02:36;;;;;;;10.05;6.90;;;8.90;99.90;;;;;;5016508;28;20065;-73
2022/04/07 01:05:04;;;;;;;10.45;7.13;;;8.90;99.90;;;;;;5016420;28;20471;-73
2022/04/07 01:07:32;;;;;;;9.73;7.05;;;8.90;99.90;;;;;;4999090;28;20061;-73
2022/04/07 01:09:59;;;;;;;10.43;6.40;;;8.90;99.90;;;;;;5016789;28;20108;-77
2022/04/07 01:12:24;;;;;;;8.30;6.38;;;8.90;99.90;;;;;;5016706;28;20124;-74
2022/04/07 01:15:02;;;;;;;7.45;5.85;;;8.90;99.90;;;;;;5016155;28;20128;-75
2022/04/07 01:17:28;;;;;;;9.45;6.70;;;9.00;99.90;;;;;;5015969;28;20146;-74
2022/04/07 01:19:55;;;;;;;10.20;6.50;;;9.00;99.90;;;;;;5016278;28;20050;-75
2022/04/07 01:22:22;;;;;;;8.65;6.13;;;8.90;99.90;;;;;;5016121;28;20049;-73
2022/04/07 01:24:48;;;;;;;9.13;5.72;;;8.90;99.90;;;;;;5015834;28;20512;-74
2022/04/07 01:27:16;;;;;;;9.27;5.40;;;8.90;99.90;;;;;;5015989;28;20138;-77
2022/04/07 01:29:42;;;;;;;9.18;6.55;;;8.90;99.90;;;;;;5016053;28;20125;-73
2022/04/07 01:32:17;;;;;;;7.43;6.25;;;9.00;99.90;;;;;;5014379;28;20544;-73
2022/04/07 01:34:43;;;;;;;6.85;5.47;;;8.90;99.90;;;;;;5015965;28;20478;-74
2022/04/07 01:37:10;;;;;;;10.18;5.72;;;9.00;99.90;;;;;;5015856;28;20049;-74
2022/04/07 01:39:38;;;;;;;8.07;6.35;;;8.90;99.90;;;;;;5015750;28;20124;-74
2022/04/07 01:42:05;;;;;;;8.25;5.82;;;8.90;99.90;;;;;;5016888;28;20065;-73
2022/04/07 01:44:35;;;;;;;7.55;5.28;;;8.90;99.90;;;;;;4998532;28;20125;-74
2022/04/07 01:47:01;;;;;;;7.72;5.03;;;9.00;99.90;;;;;;5015614;28;20038;-76
2022/04/07 01:49:27;;;;;;;8.52;4.78;;;9.00;99.90;;;;;;5015922;28;20042;-75
2022/04/07 01:51:53;;;;;;;6.57;4.93;;;9.00;99.90;;;;;;5014085;28;20486;-74
2022/04/07 01:54:19;;;;;;;9.98;5.43;;;8.90;99.90;;;;;;5015543;28;20104;-75
2022/04/07 01:56:46;;;;;;;7.30;4.80;;;9.00;99.90;;;;;;5015501;28;20074;-73
2022/04/07 01:59:13;;;;;;;7.75;4.30;;;9.10;99.90;;;;;;5015505;28;20049;-75
2022/04/07 02:01:39;;;;;;;7.82;4.90;;;9.00;99.90;;;;;;5014663;28;20084;-74
2022/04/07 02:04:06;;;;;;;7.68;4.50;;;8.90;99.90;;;;;;5015629;28;20046;-73
2022/04/07 02:06:31;;;;;;;6.55;4.25;;;8.80;99.90;;;;;;5014223;28;20046;-73
2022/04/07 02:08:58;;;;;;;9.18;4.65;;;8.80;99.90;;;;;;5014984;28;20053;-75
2022/04/07 02:11:23;;;;;;;5.60;4.10;;;8.80;99.90;;;;;;5015183;28;20132;-73
2022/04/07 02:13:50;;;;;;;7.03;4.40;;;8.80;99.90;;;;;;5014793;28;20073;-74
2022/04/07 02:16:15;;;;;;;7.70;3.90;;;8.80;99.90;;;;;;5014497;28;20467;-75
2022/04/07 02:18:43;;;;;;;6.78;3.50;;;8.80;99.90;;;;;;5014770;28;20560;-74
2022/04/07 02:21:09;;;;;;;6.18;3.45;;;8.80;99.90;;;;;;5015048;28;20112;-74
2022/04/07 02:23:41;;;;;;;6.63;3.90;;;8.80;99.90;;;;;;5013683;28;20054;-73
2022/04/07 02:26:12;;;;;;;8.70;4.25;;;8.80;99.90;;;;;;5015703;28;20056;-76
2022/04/07 02:28:38;;;;;;;4.80;3.47;;;8.80;99.90;;;;;;5015159;28;20519;-77
2022/04/07 02:31:04;;;;;;;7.93;4.07;;;8.80;99.90;;;;;;5013664;28;20048;-73
2022/04/07 02:33:30;;;;;;;5.00;3.80;;;8.80;99.90;;;;;;5014567;28;20081;-75
2022/04/07 02:35:55;;;;;;;7.60;3.90;;;8.80;99.90;;;;;;5013837;28;20076;-73
2022/04/07 02:38:21;;;;;;;6.50;3.90;;;8.80;99.90;;;;;;5014607;28;20045;-73
2022/04/07 02:40:47;;;;;;;7.68;3.65;;;8.80;99.90;;;;;;4997785;28;20475;-77
2022/04/07 02:43:12;;;;;;;8.13;4.68;;;8.80;99.90;;;;;;5015372;28;20054;-74
2022/04/07 02:45:38;;;;;;;6.03;4.00;;;8.70;99.90;;;;;;5014595;28;20050;-73
2022/04/07 02:48:04;;;;;;;11.02;4.65;;;8.70;99.90;;;;;;5013526;28;20478;-74
2022/04/07 02:50:29;;;;;;;11.35;4.45;;;8.60;99.90;;;;;;5014191;28;20050;-74
2022/04/07 02:52:55;;;;;;;7.85;4.65;;;8.60;99.90;;;;;;5013758;28;20038;-73
2022/04/07 02:55:22;;;;;;;8.07;4.20;;;8.60;99.90;;;;;;5014693;28;20049;-74
2022/04/07 02:57:47;;;;;;;8.88;4.35;;;8.60;99.90;;;;;;5014390;28;20054;-74
2022/04/07 03:00:14;;;;;;;6.85;3.97;;;8.70;99.90;;;;;;5014311;28;20054;-75
2022/04/07 03:02:39;;;;;;;7.85;3.70;;;8.70;99.90;;;;;;5012832;28;20092;-75
2022/04/07 03:05:05;;;;;;;8.63;4.03;;;8.70;99.90;;;;;;5014203;28;20444;-74
2022/04/07 03:07:31;;;;;;;10.95;4.68;;;8.70;99.90;;;;;;5014275;28;20046;-73
2022/04/07 03:09:57;;;;;;;8.20;4.65;;;8.80;99.90;;;;;;5014833;28;20050;-76
2022/04/07 03:12:22;;;;;;;8.13;4.15;;;8.70;99.90;;;;;;5013932;28;20050;-73
2022/04/07 03:14:48;;;;;;;5.03;3.22;;;8.70;99.90;;;;;;5012888;28;20049;-73
2022/04/07 03:17:14;;;;;;;9.45;4.32;;;8.70;99.90;;;;;;5014056;28;20046;-73
2022/04/07 03:19:40;;;;;;;6.75;3.92;;;8.70;99.90;;;;;;5014665;28;20049;-74
2022/04/07 03:22:05;;;;;;;7.78;4.60;;;8.60;99.90;;;;;;5013041;28;20056;-73
2022/04/07 03:24:31;;;;;;;11.07;4.38;;;8.50;99.90;;;;;;5014411;28;20045;-76
2022/04/07 03:26:57;;;;;;;11.63;4.28;;;8.40;99.90;;;;;;5012860;28;20038;-74
2022/04/07 03:29:23;;;;;;;8.60;4.55;;;8.40;99.90;;;;;;5013742;28;20042;-74
2022/04/07 03:31:48;;;;;;;10.77;5.30;;;8.30;99.90;;;;;;5012479;28;20125;-74
2022/04/07 03:34:14;;;;;;;7.45;3.90;;;8.30;99.90;;;;;;5013725;28;20081;-74
2022/04/07 03:36:40;;;;;;;8.48;4.55;;;8.20;99.90;;;;;;5012642;28;20156;-73
2022/04/07 03:39:06;;;;;;;11.80;5.22;;;8.30;99.90;;;;;;5013709;28;20056;-74
2022/04/07 03:41:31;;;;;;;10.48;4.72;;;8.20;99.90;;;;;;5012624;28;20057;-74
2022/04/07 03:43:57;;;;;;;9.93;5.30;;;8.20;99.90;;;;;;5013732;28;20050;-74
2022/04/07 03:46:23;;;;;;;9.45;5.05;;;8.20;99.90;;;;;;5012772;28;20145;-73
2022/04/07 03:48:49;;;;;;;13.30;5.20;;;8.20;99.90;;;;;;5012691;28;20042;-73
2022/04/07 03:51:16;;;;;;;8.40;4.85;;;8.10;99.90;;;;;;5012471;28;20046;-75
2022/04/07 03:53:42;;;;;;;10.75;4.88;;;8.10;99.90;;;;;;5014200;28;20049;-73
2022/04/07 03:56:08;;;;;;;10.82;4.75;;;8.10;99.90;;;;;;5013568;28;20141;-73
2022/04/07 03:58:33;;;;;;;8.75;4.50;;;8.10;99.90;;;;;;5012428;28;20046;-72
2022/04/07 04:00:59;;;;;;;9.02;4.30;;;8.10;99.90;;;;;;5013354;28;20061;-72
2022/04/07 04:03:25;;;;;;;8.50;4.20;;;8.10;99.90;;;;;;5013494;28;20048;-73
2022/04/07 04:05:50;;;;;;;6.55;3.67;;;8.00;99.90;;;;;;5012290;28;20057;-74
2022/04/07 04:08:16;;;;;;;8.95;4.30;;;8.00;99.90;;;;;;5013388;28;20132;-73
2022/04/07 04:10:42;;;;;;;12.52;4.22;;;8.00;99.90;;;;;;5012570;28;20053;-74
2022/04/07 04:13:08;;;;;;;8.15;4.85;;;7.70;99.90;;;;;;5013940;28;20045;-75
2022/04/07 04:15:33;;;;;;;7.78;3.70;;;8.20;99.90;;;;;;5016053;28;20042;-74
2022/04/07 04:17:59;;;;;;;13.18;4.95;;;8.10;99.90;;;;;;5017905;28;20521;-76
2022/04/07 04:20:25;;;;;;;9.00;4.45;;;8.00;99.90;;;;;;5017768;28;20049;-73
2022/04/07 04:22:51;;;;;;;11.95;4.32;;;8.00;99.90;;;;;;5017214;28;20056;-74
2022/04/07 04:25:17;;;;;;;9.93;4.00;;;8.10;99.90;;;;;;5016883;28;20046;-73
2022/04/07 04:27:42;;;;;;;10.93;4.55;;;8.00;99.90;;;;;;5015910;28;20057;-73
2022/04/07 04:30:09;;;;;;;10.85;4.47;;;8.00;99.90;;;;;;5017064;28;20097;-74
2022/04/07 04:32:35;;;;;;;10.15;3.95;;;8.00;99.90;;;;;;5016976;28;20092;-74
2022/04/07 04:35:01;;;;;;;14.60;4.95;;;8.00;99.90;;;;;;5016768;28;20058;-73
2022/04/07 04:37:27;;;;;;;9.63;3.70;;;8.00;99.90;;;;;;5017189;28;20143;-74
2022/04/07 04:39:54;;;;;;;13.35;4.47;;;8.00;99.90;;;;;;5017018;28;20046;-72
2022/04/07 04:42:20;;;;;;;8.30;4.10;;;8.00;99.90;;;;;;5017522;28;20069;-73
2022/04/07 04:44:46;;;;;;;11.43;4.63;;;8.00;99.90;;;;;;5016923;28;20110;-74
2022/04/07 04:47:13;;;;;;;13.77;5.38;;;8.00;99.90;;;;;;5016575;28;20050;-74
2022/04/07 04:49:42;;;;;;;10.15;4.00;;;8.00;99.90;;;;;;5016446;28;20584;-74
2022/04/07 04:52:09;;;;;;;10.55;4.28;;;8.00;99.90;;;;;;5016659;28;20119;-73
2022/04/07 04:54:35;;;;;;;13.85;4.75;;;8.00;99.90;;;;;;5015709;28;20045;-73
2022/04/07 04:57:01;;;;;;;13.45;4.40;;;8.00;99.90;;;;;;5015622;28;20048;-73
2022/04/07 04:59:27;;;;;;;8.98;4.15;;;8.10;99.90;;;;;;5015625;28;20467;-75
2022/04/07 05:01:53;;;;;;;10.60;4.00;;;8.10;99.90;;;;;;5015514;28;20045;-76
2022/04/07 05:04:18;;;;;;;16.45;4.85;;;8.00;99.90;;;;;;5015473;28;20042;-75
2022/04/07 05:06:44;;;;;;;14.05;5.15;;;8.00;99.90;;;;;;4999378;28;20048;-74
2022/04/07 05:09:10;;;;;;;9.50;4.80;;;8.00;99.90;;;;;;5015317;28;20046;-73
2022/04/07 05:11:35;;;;;;;13.48;4.70;;;8.00;99.90;;;;;;5015889;28;20133;-72
2022/04/07 05:14:01;;;;;;;13.23;5.22;;;8.00;99.90;;;;;;5016267;28;20076;-74
2022/04/07 05:16:27;;;;;;;13.68;4.82;;;8.00;99.90;;;;;;5015240;28;20057;-73
2022/04/07 05:18:52;;;;;;;13.63;5.25;;;8.10;99.90;;;;;;5016122;28;20046;-74
2022/04/07 05:21:18;;;;;;;14.77;5.88;;;8.00;99.90;;;;;;5016414;28;20050;-74
2022/04/07 05:23:44;;;;;;;13.48;6.40;;;8.10;99.90;;;;;;5016064;28;20045;-74
2022/04/07 05:26:12;;;;;;;17.25;5.30;;;8.00;99.90;;;;;;5015822;28;20046;-74
2022/04/07 05:28:41;;;;;;;9.98;5.05;;;8.00;99.90;;;;;;5014698;28;20046;-74
2022/04/07 05:31:08;;;;;;;9.63;4.70;;;8.10;99.90;;;;;;5014896;28;20038;-72
2022/04/07 05:33:33;;;;;;;8.82;4.50;;;8.00;99.90;;;;;;5015898;28;20048;-74
2022/04/07 05:35:59;;;;;;;10.57;4.55;;;8.10;99.90;;;;;;5015700;28;20049;-74
2022/04/07 05:38:25;;;;;;;8.50;4.57;;;8.10;99.90;;;;;;5015040;28;20053;-74
2022/04/07 05:40:51;;;;;;;13.57;4.50;;;8.00;99.90;;;;;;5015499;28;20060;-74
2022/04/07 05:43:17;;;;;;;10.77;4.43;;;8.00;99.90;;;;;;4998974;28;20472;-74
2022/04/07 05:45:45;;;;;;;6.57;3.63;;;8.00;99.90;;;;;;5014495;28;20042;-73
2022/04/07 05:48:14;;;;;;;11.20;4.00;;;8.10;99.90;;;;;;5016410;28;20089;-74
2022/04/07 05:50:40;;;;;;;11.32;4.97;;;8.10;99.90;;;;;;5015526;28;20081;-74
2022/04/07 05:53:07;;;;;;;11.93;4.28;;;8.10;99.90;;;;;;5015560;28;20046;-74
2022/04/07 05:55:36;;;;;;;10.77;3.72;;;8.10;99.90;;;;;;5015495;28;20050;-72
2022/04/07 05:58:06;;;;;;;11.85;5.57;;;8.00;99.90;;;;;;5014203;28;20482;-73
2022/04/07 06:00:32;;;;;;;10.13;3.83;;;8.10;99.90;;;;;;5015342;28;20054;-73
2022/04/07 06:02:58;;;;;;;13.02;3.55;;;8.10;99.90;;;;;;5014186;28;20073;-75
2022/04/07 06:05:24;;;;;;;12.75;4.13;;;8.10;99.90;;;;;;4997654;28;20053;-73
2022/04/07 06:07:50;;;;;;;12.35;3.90;;;8.30;99.90;;;;;;4998001;28;20053;-73
2022/04/07 06:10:16;;;;;;;8.02;3.35;;;8.00;99.90;;;;;;5015630;28;20064;-75
2022/04/07 06:12:43;;;;;;;14.02;4.47;;;8.30;99.90;;;;;;5015151;28;20042;-75
2022/04/07 06:15:13;;;;;;;9.10;3.47;;;8.10;99.90;;;;;;5015100;28;20053;-77
2022/04/07 06:17:41;;;;;;;10.43;4.13;;;8.00;99.90;;;;;;4997877;28;20423;-78
2022/04/07 06:20:07;;;;;;;6.20;3.40;;;8.00;99.90;;;;;;5014152;28;20057;-81
2022/04/07 06:22:34;;;;;;;1.83;1.00;;;8.00;99.90;;;;;;5014194;28;20446;-82
2022/04/07 06:25:00;;;;;;;2.38;0.50;;;7.30;99.90;;;;;;5014069;28;20145;-84
2022/04/07 06:27:45;;;;;;;2.33;0.60;;;7.20;99.90;;;;;;4998524;28;20045;-81
2022/04/07 06:30:13;;;;;;;1.55;0.40;;;5.90;99.90;;;;;;4997637;28;20053;-83
2022/04/07 06:32:40;;;;;;;0.40;0.32;;;5.70;99.90;;;;;;5013642;28;20042;-84
2022/04/07 06:35:07;;;;;;;3.53;0.60;;;6.10;99.90;;;;;;4997091;28;20053;-80
2022/04/07 06:37:49;;;;;;;1.27;0.50;;;5.30;99.90;;;;;;4997219;28;20042;-82
2022/04/07 06:40:22;;;;;;;1.35;0.60;;;5.20;99.90;;;;;;5013526;28;20054;-82
2022/04/07 06:42:52;;;;;;;1.48;0.52;;;5.10;99.90;;;;;;5014816;28;20430;-83
2022/04/07 06:45:18;;;;;;;1.75;0.40;;;5.10;99.90;;;;;;4997460;28;20049;-82
2022/04/07 06:47:44;;;;;;;2.45;0.77;;;5.00;99.90;;;;;;4997120;28;20508;-82
2022/04/07 06:50:15;;;;;;;1.30;0.60;;;5.00;99.90;;;;;;5014368;28;20132;-84
2022/04/07 06:52:42;;;;;;;1.33;1.05;;;5.70;99.90;;;;;;5013523;28;20057;-85
2022/04/07 06:55:09;;;;;;;3.22;0.65;;;5.90;99.90;;;;;;4997956;28;20050;-86
2022/04/07 06:57:57;;;;;;;3.20;0.75;;;4.70;99.90;;;;;;4998006;28;20046;-86
2022/04/07 07:00:29;;;;;;;2.63;1.00;;;4.70;99.90;;;;;;5014385;28;20042;-86
2022/04/07 07:02:56;;;;;;;1.58;0.75;;;4.60;99.90;;;;;;5013908;28;20544;-89
2022/04/07 07:05:27;;;;;;;3.45;0.80;;;4.80;99.90;;;;;;4997891;28;20463;-83
2022/04/07 07:07:53;;;;;;;1.67;0.70;;;4.60;99.90;;;;;;4981918;28;20045;-87
2022/04/07 07:10:23;;;;;;;2.38;0.90;;;4.90;99.90;;;;;;4997083;28;20050;-81
2022/04/07 07:12:51;;;;;;;1.58;0.60;;;4.50;99.90;;;;;;5014280;28;20069;-84
2022/04/07 07:15:17;;;;;;;2.38;0.70;;;4.60;99.90;;;;;;5013582;28;20057;-86
2022/04/07 07:17:43;;;;;;;1.20;0.90;;;4.50;99.90;;;;;;4996899;28;20041;-86
2022/04/07 07:20:11;;;;;;;2.10;0.50;;;4.50;99.90;;;;;;5013329;28;20042;-83
2022/04/07 07:22:40;;;;;;;1.73;0.73;;;4.40;99.90;;;;;;4980546;28;20104;-83
2022/04/07 07:25:07;;;;;;;1.33;0.60;;;5.20;99.90;;;;;;4997426;28;20077;-84
2022/04/07 07:27:42;;;;;;;3.35;0.80;;;4.30;99.90;;;;;;4996514;28;20049;-87
2022/04/07 07:30:09;;;;;;;0.90;0.50;;;5.00;99.90;;;;;;4997243;28;20088;-85
2022/04/07 07:32:40;;;;;;;1.23;0.57;;;4.30;99.90;;;;;;5013314;28;20049;-89
2022/04/07 07:35:07;;;;;;;1.85;0.50;;;4.30;99.90;;;;;;4981413;28;20502;-90
2022/04/07 07:37:33;;;;;;;1.05;0.50;;;4.30;99.90;;;;;;4996451;28;20057;-85
2022/04/07 07:40:09;;;;;;;2.15;0.77;;;4.30;99.90;;;;;;4996424;28;20132;-84
2022/04/07 07:42:38;;;;;;;1.35;0.98;;;4.30;99.90;;;;;;4981763;28;20100;-85
2022/04/07 07:45:07;;;;;;;2.55;0.90;;;4.30;99.90;;;;;;4981298;28;20041;-88
2022/04/07 07:47:37;;;;;;;2.40;0.80;;;4.30;99.90;;;;;;5013525;28;20044;-85
2022/04/07 07:50:04;;;;;;;2.50;0.98;;;4.20;99.90;;;;;;4980831;28;20054;-86
2022/04/07 07:52:30;;;;;;;2.25;0.93;;;;;;;;;;4996327;28;20049;-84
2022/04/07 07:54:58;;;;;;;2.03;0.70;;;;;;;;;;4996927;28;20046;-88
2022/04/07 07:57:25;;;;;;;2.67;0.70;;;;;;;;;;4997299;28;20133;-88
2022/04/07 07:59:51;;;;;;;3.50;1.17;;;;;;;;;;4997505;28;20061;-87
2022/04/07 08:02:18;;;;;;;3.67;0.88;;;4.20;99.90;;;;;;4996599;28;20053;-85
2022/04/07 08:04:47;;;;;;;1.67;0.80;;;4.60;99.90;;;;;;4996578;28;20104;-86
2022/04/07 08:07:13;;;;;;;1.25;0.60;;;4.20;99.90;;;;;;4996310;28;20104;-86
2022/04/07 08:09:39;;;;;;;1.83;0.70;;;4.30;99.90;;;;;;4996447;28;20038;-88
2022/04/07 08:12:04;;;;;;;4.28;1.05;;;4.50;99.90;;;;;;4996307;28;20038;-89
2022/04/07 08:14:31;;;;;;;2.50;0.82;;;;;;;;;;4996999;28;20057;-90
2022/04/07 08:16:59;;;;;;;3.13;1.20;;;4.20;99.90;;;;;;5014312;28;20042;-91
2022/04/07 08:19:26;;;;;;;4.00;1.60;;;;;;;;;;4997629;28;20057;-90
2022/04/07 08:21:52;;;;;;;3.67;1.10;;;4.30;99.90;;;;;;4998421;28;20128;-90
2022/04/07 08:24:19;;;;;;;3.22;1.10;;;4.30;99.90;;;;;;4999143;28;20078;-89
2022/04/07 08:26:48;;;;;;;1.70;0.70;;;4.30;99.90;;;;;;5015038;28;20136;-88
2022/04/07 08:29:14;;;;;;;4.63;1.27;;;4.30;99.90;;;;;;4997597;28;20050;-90
2022/04/07 08:31:40;;;;;;;5.30;1.58;;;4.60;99.90;;;;;;5013508;28;20406;-88
2022/04/07 08:34:05;;;;;;;3.75;0.82;;;4.40;99.90;;;;;;4996985;28;20107;-91
2022/04/07 08:36:34;;;;;;;3.10;0.50;;;4.40;99.90;;;;;;4981084;28;20136;-88
2022/04/07 08:39:03;;;;;;;2.35;0.90;;;5.90;99.90;;;;;;5013648;28;20042;-86
2022/04/07 08:41:34;;;;;;;1.90;1.00;;;4.60;99.90;;;;;;4995925;28;20398;-87
2022/04/07 08:44:00;;;;;;;3.33;1.02;;;4.60;99.90;;;;;;4997683;28;20593;-88
2022/04/07 08:46:28;;;;;;;3.55;0.80;;;6.30;99.90;;;;;;4996759;28;20050;-87
2022/04/07 08:48:59;;;;;;;2.15;0.80;;;4.90;99.90;;;;;;4996469;28;20437;-86
2022/04/07 08:51:28;;;;;;;2.35;0.93;;;6.10;99.90;;;;;;4995928;28;20045;-87
2022/04/07 08:53:57;;;;;;;3.85;0.85;;;;;;;;;;4995649;28;20076;-86
2022/04/07 08:56:23;;;;;;;1.60;0.85;;;5.20;99.90;;;;;;5012124;28;20084;-85
2022/04/07 08:58:57;;;;;;;2.05;0.70;;;;;;;;;;4996135;28;20046;-87
2022/04/07 09:01:23;;;;;;;3.17;0.63;;;;;;;;;;4999524;28;20056;-86
2022/04/07 09:03:49;;;;;;;2.75;0.90;;;5.00;99.90;;;;;;4999387;28;20050;-86
2022/04/07 09:06:18;;;;;;;0.95;0.60;;;5.10;99.90;;;;;;5016068;28;20048;-89
2022/04/07 09:08:44;;;;;;;3.10;1.00;;;5.20;99.90;;;;;;5016026;28;20260;-84
2022/04/07 09:11:13;;;;;;;1.95;0.90;;;5.90;99.90;;;;;;4999860;28;20141;-87
2022/04/07 09:13:44;;;;;;;3.22;1.00;;;5.80;99.90;;;;;;5015488;28;20364;-85
2022/04/07 09:16:12;;;;;;;1.67;0.82;;;6.30;99.90;;;;;;4999397;28;20049;-83
2022/04/07 09:18:40;;;;;;;2.08;0.73;;;6.20;99.90;;;;;;5015311;28;20499;-84
2022/04/07 09:21:07;;;;;;;3.42;0.80;;;6.50;99.90;;;;;;5015468;28;20141;-86
2022/04/07 09:23:42;;;;;;;1.75;0.73;;;6.60;99.90;;;;;;5015285;28;20129;-86
2022/04/07 09:26:12;;;;;;;1.95;0.80;;;6.90;99.90;;;;;;5015284;28;20486;-86
2022/04/07 09:28:38;;;;;;;2.53;0.80;;;7.00;99.90;;;;;;5016049;28;20050;-84
2022/04/07 09:31:04;;;;;;;4.68;0.93;;;7.10;99.90;;;;;;4998749;28;20111;-82
2022/04/07 09:33:32;;;;;;;3.17;1.00;;;7.30;99.90;;;;;;4998662;28;20050;-84
2022/04/07 09:36:02;;;;;;;1.95;0.90;;;7.50;99.90;;;;;;4999045;28;20045;-85
2022/04/07 09:38:32;;;;;;;2.00;0.90;;;7.70;99.90;;;;;;5015323;28;20045;-86
2022/04/07 09:41:12;;;;;;;5.47;1.40;;;7.80;99.90;;;;;;4998295;28;20557;-86
2022/04/07 09:43:48;;;;;;;2.70;0.90;;;8.00;99.90;;;;;;4999055;28;20491;-87
2022/04/07 09:46:18;;;;;;;3.35;1.02;;;8.20;99.90;;;;;;4998423;28;20552;-88
2022/04/07 09:49:04;;;;;;;2.22;1.10;;;8.30;99.90;;;;;;4998928;28;20046;-87
2022/04/07 09:51:36;;;;;;;3.28;1.10;;;8.50;99.90;;;;;;5015169;28;20136;-86
2022/04/07 09:54:02;;;;;;;4.70;1.27;;;8.50;99.90;;;;;;5016065;28;20038;-88
2022/04/07 09:56:31;;;;;;;5.50;1.60;;;8.40;99.90;;;;;;4998528;28;20049;-84
2022/04/07 09:58:57;;;;;;;4.20;1.10;;;8.60;99.90;;;;;;5014568;28;20042;-85
2022/04/07 10:01:24;;;;;;;2.80;1.10;;;8.60;99.90;;;;;;4999171;28;20479;-85
2022/04/07 10:03:50;;;;;;;6.63;1.63;;;8.70;99.90;;;;;;4998168;28;20054;-85
2022/04/07 10:06:17;;;;;;;5.97;1.90;;;8.70;99.90;;;;;;5014968;28;20145;-91
2022/04/07 10:08:49;;;;;;;5.20;1.45;;;9.20;99.90;;;;;;4982092;28;20054;-86
2022/04/07 10:11:19;;;;;;;3.28;1.23;;;8.70;99.90;;;;;;4997560;28;20049;-85
2022/04/07 10:13:48;;;;;;;5.72;1.63;;;8.70;99.90;;;;;;5014537;28;20438;-87
2022/04/07 10:16:16;;;;;;;8.05;1.92;;;8.80;99.90;;;;;;4982215;28;20200;-86
2022/04/07 10:18:58;;;;;;;6.18;1.35;;;8.80;99.90;;;;;;5014814;28;20046;-85
2022/04/07 10:21:36;;;;;;;5.00;2.13;;;8.80;99.90;;;;;;5014331;28;20096;-86
2022/04/07 10:24:28;;;;;;;4.70;1.40;;;8.80;99.90;;;;;;4998151;28;20080;-85
2022/04/07 10:26:55;;;;;;;3.15;1.60;;;8.70;99.90;;;;;;5013623;28;20481;-84
2022/04/07 10:29:22;;;;;;;4.40;1.60;;;8.70;99.90;;;;;;4997674;28;20052;-85
2022/04/07 10:32:23;;;;;;;6.20;1.65;;;8.70;99.90;;;;;;4997584;28;20042;-89
2022/04/07 10:34:59;;;;;;;6.25;1.35;;;8.70;99.90;;;;;;4908478;29;20052;-87
2022/04/07 10:37:47;;;;;;;7.03;2.38;;;8.70;99.90;;;;;;5006708;28;20163;-90
2022/04/07 10:40:50;;;;;;;5.68;1.55;;;8.80;99.90;;;;;;5000653;28;20042;-89
2022/04/07 10:43:26;;;;;;;4.38;1.63;;;9.00;99.90;;;;;;5014152;28;20068;-86
2022/04/07 10:46:11;;;;;;;3.70;1.30;;;9.40;99.90;;;;;;4997853;28;20053;-88
2022/04/07 10:48:43;;;;;;;3.38;1.17;;;9.60;99.90;;;;;;5014279;28;20092;-88
2022/04/07 10:51:11;;;;;;;7.45;2.72;;;9.60;99.90;;;;;;4997261;28;20072;-85
2022/04/07 10:53:52;;;;;;;6.10;1.90;;;9.60;99.90;;;;;;4997448;28;20510;-85
2022/04/07 10:56:34;;;;;;;5.40;1.52;;;9.60;99.90;;;;;;4997454;28;20046;-87
2022/04/07 10:59:21;;;;;;;6.65;1.90;;;9.60;99.90;;;;;;4997017;28;20132;-83
2022/04/07 11:01:52;;;;;;;4.30;1.73;;;9.60;99.90;;;;;;4997061;28;20371;-85
2022/04/07 11:04:21;;;;;;;5.03;2.05;;;9.50;99.90;;;;;;4997875;28;20057;-82
2022/04/07 11:07:07;;;;;;;9.75;2.75;;;9.40;99.90;;;;;;4997864;28;20053;-85
2022/04/07 11:09:47;;;;;;;5.30;2.20;;;9.30;99.90;;;;;;4996946;28;20089;-83
2022/04/07 11:12:24;;;;;;;6.80;2.65;;;9.20;99.90;;;;;;4997369;28;20034;-84
2022/04/07 11:15:32;;;;;;;5.88;2.58;;;9.10;99.90;;;;;;4997705;28;20081;-87
2022/04/07 11:18:04;;;;;;;6.28;2.00;;;9.20;99.90;;;;;;4979954;28;20053;-89
2022/04/07 11:20:30;;;;;;;6.75;1.98;;;9.40;99.90;;;;;;4996791;28;20132;-85
2022/04/07 11:23:08;;;;;;;7.47;2.45;;;9.70;99.90;;;;;;5013337;28;20432;-87
2022/04/07 11:25:42;;;;;;;7.55;1.85;;;9.80;99.90;;;;;;4980951;28;20367;-83
2022/04/07 11:28:25;;;;;;;6.78;1.77;;;9.80;99.90;;;;;;5013162;28;20104;-84
2022/04/07 11:30:52;;;;;;;7.25;1.45;;;9.80;99.90;;;;;;4996621;28;20088;-84
2022/04/07 11:33:27;;;;;;;3.95;1.50;;;9.70;99.90;;;;;;5013244;28;20042;-84
2022/04/07 11:36:02;;;;;;;4.18;1.38;;;9.30;99.90;;;;;;4997202;28;20050;-88
2022/04/07 11:38:37;;;;;;;6.45;1.65;;;8.80;99.90;;;;;;5012980;28;20085;-86
2022/04/07 11:41:09;;;;;;;4.88;1.45;;;8.50;99.90;;;;;;5014182;28;20053;-86
2022/04/07 11:43:43;;;;;;;7.05;2.03;;;8.60;99.90;;;;;;4997237;28;20049;-85
2022/04/07 11:46:09;;;;;;;6.57;1.92;;;8.80;99.90;;;;;;4998065;28;20061;-86
2022/04/07 11:48:39;;;;;;;7.50;2.08;;;9.10;99.90;;;;;;4996245;28;20479;-86
2022/04/07 11:51:12;;;;;;;6.05;1.90;;;9.40;99.90;;;;;;5012597;28;20052;-87
2022/04/07 11:53:39;;;;;;;5.57;1.60;;;9.50;99.90;;;;;;5013075;28;20050;-84
2022/04/07 11:56:17;;;;;;;8.27;2.25;;;9.70;99.90;;;;;;4996884;28;20066;-88
2022/04/07 11:59:07;;;;;;;4.45;1.65;;;10.00;99.90;;;;;;4997366;28;20057;-91
2022/04/07 12:01:36;;;;;;;10.25;2.25;;;9.90;99.90;;;;;;5013384;28;20475;-87
2022/04/07 12:04:04;;;;;;;7.10;2.22;;;9.90;99.90;;;;;;5013074;28;20441;-88
2022/04/07 12:06:31;;;;;;;7.15;2.08;;;9.90;99.90;;;;;;4997117;28;20085;-88
2022/04/07 12:08:58;;;;;;;5.00;1.73;;;9.90;99.90;;;;;;4996853;28;20104;-90
2022/04/07 12:11:26;;;;;;;5.25;1.80;;;9.80;99.90;;;;;;5012628;28;20449;-87
2022/04/07 12:13:54;;;;;;;7.03;2.05;;;9.80;99.90;;;;;;5012709;28;20045;-91
2022/04/07 12:16:22;;;;;;;5.35;2.13;;;9.80;99.90;;;;;;4997264;28;20500;-89
2022/04/07 12:18:52;;;;;;;9.43;1.95;;;9.80;99.90;;;;;;5012484;28;20050;-87
2022/04/07 12:21:19;;;;;;;10.10;2.35;;;9.90;99.90;;;;;;5013105;28;20053;-85
2022/04/07 12:23:47;;;;;;;6.90;1.95;;;9.90;99.90;;;;;;4996481;28;20054;-90
2022/04/07 12:26:13;;;;;;;8.18;1.60;;;10.10;99.90;;;;;;4980333;28;20498;-87
2022/04/07 12:28:39;;;;;;;6.25;1.98;;;10.10;99.90;;;;;;5012597;28;20046;-85
2022/04/07 12:31:22;;;;;;;9.52;2.00;;;10.00;99.90;;;;;;5012494;28;20038;-86
2022/04/07 12:33:50;;;;;;;8.05;2.10;;;10.00;99.90;;;;;;5012149;28;20099;-84
2022/04/07 12:36:35;;;;;;;6.45;2.33;;;10.20;99.90;;;;;;5015455;28;20052;-82
2022/04/07 12:39:05;;;;;;;10.07;1.88;;;10.30;99.90;;;;;;4999775;28;20045;-84
2022/04/07 12:41:37;;;;;;;9.93;2.95;;;10.60;99.90;;;;;;4999579;28;20140;-87
2022/04/07 12:44:03;;;;;;;7.88;2.22;;;10.60;99.90;;;;;;5000137;28;20046;-84
2022/04/07 12:47:01;;;;;;;6.97;1.40;;;10.60;99.90;;;;;;5000453;28;20056;-87
2022/04/07 12:49:28;;;;;;;8.82;1.98;;;10.40;99.90;;;;;;4999890;28;20099;-83
2022/04/07 12:52:11;;;;;;;5.50;1.40;;;10.40;99.90;;;;;;5015612;28;20049;-84
2022/04/07 12:55:12;;;;;;;5.13;2.00;;;10.50;99.90;;;;;;4999716;28;20050;-85
2022/04/07 12:57:40;;;;;;;5.13;1.50;;;10.40;99.90;;;;;;4986127;28;20386;-84
2022/04/07 13:00:10;;;;;;;4.05;1.50;;;10.70;99.90;;;;;;4999618;28;20058;-82
2022/04/07 13:02:50;;;;;;;4.05;1.42;;;10.70;99.90;;;;;;4999191;28;20462;-83
2022/04/07 13:05:21;;;;;;;7.03;1.33;;;10.70;99.90;;;;;;4999091;28;20041;-82
2022/04/07 13:07:47;;;;;;;3.85;1.52;;;10.70;99.90;;;;;;4982854;28;20092;-83